sensor_id;sensor_type;location;lat;lon;timestamp;P1;P2;P0
40569;PMS5003;26270;34.428;-119.710;2022-11-10T00:02:04;0;0;
40569;PMS5003;26270;34.428;-119.710;2022-11-10T00:04:33;0;0;
40569;PMS5003;26270;34.428;-119.710;2022-11-10T00:07:02;0;0;
40569;PMS5003;26270;34.428;-119.710;2022-11-10T00:09:30;0;0;
40569;PMS5003;26270;34.428;-119.710;2022-11-10T00:11:58;0;0;
40569;PMS5003;26270;34.428;-119.710;2022-11-10T00:14:26;0;0;
40569;PMS5003;26270;34.428;-119.710;2022-11-10T00:16:55;0;0;
40569;PMS5003;26270;34.428;-119.710;2022-11-10T00:19:24;0;0;
40569;PMS5003;26270;34.428;-119.710;2022-11-10T00:21:52;0;0;
40569;PMS5003;26270;34.428;-119.710;2022-11-10T00:24:21;0;0;
40569;PMS5003;26270;34.428;-119.710;2022-11-10T00:26:50;0;0;
40569;PMS5003;26270;34.428;-119.710;2022-11-10T00:29:18;0;0;
40569;PMS5003;26270;34.428;-119.710;2022-11-10T00:31:47;0;0;
40569;PMS5003;26270;34.428;-119.710;2022-11-10T00:34:15;0;0;
40569;PMS5003;26270;34.428;-119.710;2022-11-10T00:36:44;0;0;
40569;PMS5003;26270;34.428;-119.710;2022-11-10T00:39:12;0;0;
40569;PMS5003;26270;34.428;-119.710;2022-11-10T00:41:40;0;0;
40569;PMS5003;26270;34.428;-119.710;2022-11-10T00:44:09;0;0;
40569;PMS5003;26270;34.428;-119.710;2022-11-10T00:46:37;0;0;
40569;PMS5003;26270;34.428;-119.710;2022-11-10T00:49:05;0;0;
40569;PMS5003;26270;34.428;-119.710;2022-11-10T00:51:33;0;0;
40569;PMS5003;26270;34.428;-119.710;2022-11-10T00:54:02;0;0;
40569;PMS5003;26270;34.428;-119.710;2022-11-10T00:56:30;0;0;
40569;PMS5003;26270;34.428;-119.710;2022-11-10T00:58:58;1;1;
40569;PMS5003;26270;34.428;-119.710;2022-11-10T01:01:27;1;1;
40569;PMS5003;26270;34.428;-119.710;2022-11-10T01:03:55;0;0;
40569;PMS5003;26270;34.428;-119.710;2022-11-10T01:06:23;0;0;
40569;PMS5003;26270;34.428;-119.710;2022-11-10T01:08:51;0;0;
40569;PMS5003;26270;34.428;-119.710;2022-11-10T01:11:20;0;0;
40569;PMS5003;26270;34.428;-119.710;2022-11-10T01:13:51;0;0;
40569;PMS5003;26270;34.428;-119.710;2022-11-10T01:16:21;1;1;
40569;PMS5003;26270;34.428;-119.710;2022-11-10T01:18:51;0;0;
40569;PMS5003;26270;34.428;-119.710;2022-11-10T01:21:21;0;0;
40569;PMS5003;26270;34.428;-119.710;2022-11-10T01:23:50;0;0;
40569;PMS5003;26270;34.428;-119.710;2022-11-10T01:26:19;0;0;
40569;PMS5003;26270;34.428;-119.710;2022-11-10T01:28:48;0;0;
40569;PMS5003;26270;34.428;-119.710;2022-11-10T01:31:18;0;0;
40569;PMS5003;26270;34.428;-119.710;2022-11-10T01:33:47;2;0;
40569;PMS5003;26270;34.428;-119.710;2022-11-10T01:36:15;0;0;
40569;PMS5003;26270;34.428;-119.710;2022-11-10T01:38:43;1;0;
40569;PMS5003;26270;34.428;-119.710;2022-11-10T01:41:12;0;0;
40569;PMS5003;26270;34.428;-119.710;2022-11-10T01:43:40;0;0;
40569;PMS5003;26270;34.428;-119.710;2022-11-10T01:46:09;0;0;
40569;PMS5003;26270;34.428;-119.710;2022-11-10T01:48:41;0;0;
40569;PMS5003;26270;34.428;-119.710;2022-11-10T01:51:14;1;1;
40569;PMS5003;26270;34.428;-119.710;2022-11-10T01:53:47;1;1;
40569;PMS5003;26270;34.428;-119.710;2022-11-10T01:56:18;1;1;
40569;PMS5003;26270;34.428;-119.710;2022-11-10T01:58:48;2;2;
40569;PMS5003;26270;34.428;-119.710;2022-11-10T02:01:20;4;4;
40569;PMS5003;26270;34.428;-119.710;2022-11-10T02:03:50;5;5;
40569;PMS5003;26270;34.428;-119.710;2022-11-10T02:06:23;11;11;
40569;PMS5003;26270;34.428;-119.710;2022-11-10T02:08:53;17;17;
40569;PMS5003;26270;34.428;-119.710;2022-11-10T02:11:23;5;5;
40569;PMS5003;26270;34.428;-119.710;2022-11-10T02:13:52;5;5;
40569;PMS5003;26270;34.428;-119.710;2022-11-10T02:16:20;7;6;
40569;PMS5003;26270;34.428;-119.710;2022-11-10T02:18:49;6;6;
40569;PMS5003;26270;34.428;-119.710;2022-11-10T02:21:17;8;6;
40569;PMS5003;26270;34.428;-119.710;2022-11-10T02:23:47;9;8;
40569;PMS5003;26270;34.428;-119.710;2022-11-10T02:26:18;5;5;
40569;PMS5003;26270;34.428;-119.710;2022-11-10T02:28:48;7;6;
40569;PMS5003;26270;34.428;-119.710;2022-11-10T02:31:17;5;5;
40569;PMS5003;26270;34.428;-119.710;2022-11-10T02:33:45;5;5;
40569;PMS5003;26270;34.428;-119.710;2022-11-10T02:36:13;1;1;
40569;PMS5003;26270;34.428;-119.710;2022-11-10T02:38:42;2;2;
40569;PMS5003;26270;34.428;-119.710;2022-11-10T02:41:09;2;1;
40569;PMS5003;26270;34.428;-119.710;2022-11-10T02:43:38;1;1;
40569;PMS5003;26270;34.428;-119.710;2022-11-10T02:46:07;1;1;
40569;PMS5003;26270;34.428;-119.710;2022-11-10T02:48:36;0;0;
40569;PMS5003;26270;34.428;-119.710;2022-11-10T02:51:04;1;0;
40569;PMS5003;26270;34.428;-119.710;2022-11-10T02:53:32;0;0;
40569;PMS5003;26270;34.428;-119.710;2022-11-10T02:56:01;0;0;
40569;PMS5003;26270;34.428;-119.710;2022-11-10T02:58:29;0;0;
40569;PMS5003;26270;34.428;-119.710;2022-11-10T03:00:58;2;1;
40569;PMS5003;26270;34.428;-119.710;2022-11-10T03:03:28;0;0;
40569;PMS5003;26270;34.428;-119.710;2022-11-10T03:05:57;0;0;
40569;PMS5003;26270;34.428;-119.710;2022-11-10T03:08:25;0;0;
40569;PMS5003;26270;34.428;-119.710;2022-11-10T03:10:54;0;0;
40569;PMS5003;26270;34.428;-119.710;2022-11-10T03:13:23;0;0;
40569;PMS5003;26270;34.428;-119.710;2022-11-10T03:15:52;0;0;
40569;PMS5003;26270;34.428;-119.710;2022-11-10T03:18:20;0;0;
40569;PMS5003;26270;34.428;-119.710;2022-11-10T03:20:48;0;0;
40569;PMS5003;26270;34.428;-119.710;2022-11-10T03:23:17;0;0;
40569;PMS5003;26270;34.428;-119.710;2022-11-10T03:25:46;0;0;
40569;PMS5003;26270;34.428;-119.710;2022-11-10T03:28:14;0;0;
40569;PMS5003;26270;34.428;-119.710;2022-11-10T03:30:42;0;0;
40569;PMS5003;26270;34.428;-119.710;2022-11-10T03:33:11;0;0;
40569;PMS5003;26270;34.428;-119.710;2022-11-10T03:35:39;0;0;
40569;PMS5003;26270;34.428;-119.710;2022-11-10T03:38:07;1;1;
40569;PMS5003;26270;34.428;-119.710;2022-11-10T03:40:36;0;0;
40569;PMS5003;26270;34.428;-119.710;2022-11-10T03:43:05;0;0;
40569;PMS5003;26270;34.428;-119.710;2022-11-10T03:45:33;0;0;
40569;PMS5003;26270;34.428;-119.710;2022-11-10T03:48:01;1;1;
40569;PMS5003;26270;34.428;-119.710;2022-11-10T03:50:30;1;1;
40569;PMS5003;26270;34.428;-119.710;2022-11-10T03:52:58;0;0;
40569;PMS5003;26270;34.428;-119.710;2022-11-10T03:55:26;0;0;
40569;PMS5003;26270;34.428;-119.710;2022-11-10T03:57:55;1;1;
40569;PMS5003;26270;34.428;-119.710;2022-11-10T04:00:28;1;1;
40569;PMS5003;26270;34.428;-119.710;2022-11-10T04:02:56;2;2;
40569;PMS5003;26270;34.428;-119.710;2022-11-10T04:05:24;1;1;
40569;PMS5003;26270;34.428;-119.710;2022-11-10T04:07:56;1;1;
40569;PMS5003;26270;34.428;-119.710;2022-11-10T04:10:25;0;0;
40569;PMS5003;26270;34.428;-119.710;2022-11-10T04:12:54;0;0;
40569;PMS5003;26270;34.428;-119.710;2022-11-10T04:15:22;1;0;
40569;PMS5003;26270;34.428;-119.710;2022-11-10T04:17:50;1;1;
40569;PMS5003;26270;34.428;-119.710;2022-11-10T04:20:19;0;0;
40569;PMS5003;26270;34.428;-119.710;2022-11-10T04:22:47;0;0;
40569;PMS5003;26270;34.428;-119.710;2022-11-10T04:25:15;1;1;
40569;PMS5003;26270;34.428;-119.710;2022-11-10T04:27:43;2;2;
40569;PMS5003;26270;34.428;-119.710;2022-11-10T04:30:12;1;1;
40569;PMS5003;26270;34.428;-119.710;2022-11-10T04:32:40;3;3;
40569;PMS5003;26270;34.428;-119.710;2022-11-10T04:35:08;2;2;
40569;PMS5003;26270;34.428;-119.710;2022-11-10T04:37:37;2;2;
40569;PMS5003;26270;34.428;-119.710;2022-11-10T04:40:06;1;1;
40569;PMS5003;26270;34.428;-119.710;2022-11-10T04:42:34;4;3;
40569;PMS5003;26270;34.428;-119.710;2022-11-10T04:45:05;2;2;
40569;PMS5003;26270;34.428;-119.710;2022-11-10T04:47:34;2;2;
40569;PMS5003;26270;34.428;-119.710;2022-11-10T04:50:02;1;1;
40569;PMS5003;26270;34.428;-119.710;2022-11-10T04:52:31;3;2;
40569;PMS5003;26270;34.428;-119.710;2022-11-10T04:55:00;2;2;
40569;PMS5003;26270;34.428;-119.710;2022-11-10T04:57:27;4;4;
40569;PMS5003;26270;34.428;-119.710;2022-11-10T04:59:55;5;5;
40569;PMS5003;26270;34.428;-119.710;2022-11-10T05:03:18;8;8;
40569;PMS5003;26270;34.428;-119.710;2022-11-10T05:05:47;16;14;
40569;PMS5003;26270;34.428;-119.710;2022-11-10T05:08:15;16;15;
40569;PMS5003;26270;34.428;-119.710;2022-11-10T05:10:44;17;17;
40569;PMS5003;26270;34.428;-119.710;2022-11-10T05:13:12;17;14;
40569;PMS5003;26270;34.428;-119.710;2022-11-10T05:15:41;9;9;
40569;PMS5003;26270;34.428;-119.710;2022-11-10T05:18:09;10;10;
40569;PMS5003;26270;34.428;-119.710;2022-11-10T05:20:37;9;9;
40569;PMS5003;26270;34.428;-119.710;2022-11-10T05:23:05;6;6;
40569;PMS5003;26270;34.428;-119.710;2022-11-10T05:25:33;6;6;
40569;PMS5003;26270;34.428;-119.710;2022-11-10T05:28:03;0;0;
40569;PMS5003;26270;34.428;-119.710;2022-11-10T05:30:32;0;0;
40569;PMS5003;26270;34.428;-119.710;2022-11-10T05:33:01;0;0;
40569;PMS5003;26270;34.428;-119.710;2022-11-10T05:35:29;0;0;
40569;PMS5003;26270;34.428;-119.710;2022-11-10T05:37:58;0;0;
40569;PMS5003;26270;34.428;-119.710;2022-11-10T05:40:26;0;0;
40569;PMS5003;26270;34.428;-119.710;2022-11-10T05:42:55;0;0;
40569;PMS5003;26270;34.428;-119.710;2022-11-10T05:45:24;0;0;
40569;PMS5003;26270;34.428;-119.710;2022-11-10T05:47:54;0;0;
40569;PMS5003;26270;34.428;-119.710;2022-11-10T05:50:23;1;0;
40569;PMS5003;26270;34.428;-119.710;2022-11-10T05:52:51;0;0;
40569;PMS5003;26270;34.428;-119.710;2022-11-10T05:55:21;0;0;
40569;PMS5003;26270;34.428;-119.710;2022-11-10T05:57:51;0;0;
40569;PMS5003;26270;34.428;-119.710;2022-11-10T06:00:20;1;0;
40569;PMS5003;26270;34.428;-119.710;2022-11-10T06:02:59;0;0;
40569;PMS5003;26270;34.428;-119.710;2022-11-10T06:05:29;0;0;
40569;PMS5003;26270;34.428;-119.710;2022-11-10T06:07:59;0;0;
40569;PMS5003;26270;34.428;-119.710;2022-11-10T06:10:29;0;0;
40569;PMS5003;26270;34.428;-119.710;2022-11-10T06:12:58;0;0;
40569;PMS5003;26270;34.428;-119.710;2022-11-10T06:15:26;0;0;
40569;PMS5003;26270;34.428;-119.710;2022-11-10T06:17:55;0;0;
40569;PMS5003;26270;34.428;-119.710;2022-11-10T06:20:24;1;0;
40569;PMS5003;26270;34.428;-119.710;2022-11-10T06:23:00;7;7;
40569;PMS5003;26270;34.428;-119.710;2022-11-10T06:25:32;14;13;
40569;PMS5003;26270;34.428;-119.710;2022-11-10T06:28:02;12;12;
40569;PMS5003;26270;34.428;-119.710;2022-11-10T06:30:32;10;10;
40569;PMS5003;26270;34.428;-119.710;2022-11-10T06:33:02;10;9;
40569;PMS5003;26270;34.428;-119.710;2022-11-10T06:35:31;8;8;
40569;PMS5003;26270;34.428;-119.710;2022-11-10T06:37:59;5;4;
40569;PMS5003;26270;34.428;-119.710;2022-11-10T06:40:28;7;6;
40569;PMS5003;26270;34.428;-119.710;2022-11-10T06:42:58;5;5;
40569;PMS5003;26270;34.428;-119.710;2022-11-10T06:45:26;4;4;
40569;PMS5003;26270;34.428;-119.710;2022-11-10T06:47:58;8;5;
40569;PMS5003;26270;34.428;-119.710;2022-11-10T06:50:27;4;4;
40569;PMS5003;26270;34.428;-119.710;2022-11-10T06:52:56;5;5;
40569;PMS5003;26270;34.428;-119.710;2022-11-10T06:55:25;6;4;
40569;PMS5003;26270;34.428;-119.710;2022-11-10T06:57:53;6;5;
40569;PMS5003;26270;34.428;-119.710;2022-11-10T07:00:22;5;5;
40569;PMS5003;26270;34.428;-119.710;2022-11-10T07:02:57;4;4;
40569;PMS5003;26270;34.428;-119.710;2022-11-10T07:05:26;3;3;
40569;PMS5003;26270;34.428;-119.710;2022-11-10T07:07:55;2;2;
40569;PMS5003;26270;34.428;-119.710;2022-11-10T07:10:27;3;3;
40569;PMS5003;26270;34.428;-119.710;2022-11-10T07:12:56;2;2;
40569;PMS5003;26270;34.428;-119.710;2022-11-10T07:15:24;2;1;
40569;PMS5003;26270;34.428;-119.710;2022-11-10T07:17:53;2;2;
40569;PMS5003;26270;34.428;-119.710;2022-11-10T07:20:21;2;2;
40569;PMS5003;26270;34.428;-119.710;2022-11-10T07:22:49;2;1;
40569;PMS5003;26270;34.428;-119.710;2022-11-10T07:25:23;0;0;
40569;PMS5003;26270;34.428;-119.710;2022-11-10T07:27:52;1;1;
40569;PMS5003;26270;34.428;-119.710;2022-11-10T07:30:21;2;2;
40569;PMS5003;26270;34.428;-119.710;2022-11-10T07:32:56;2;2;
40569;PMS5003;26270;34.428;-119.710;2022-11-10T07:35:24;1;1;
40569;PMS5003;26270;34.428;-119.710;2022-11-10T07:37:54;2;1;
40569;PMS5003;26270;34.428;-119.710;2022-11-10T07:40:22;0;0;
40569;PMS5003;26270;34.428;-119.710;2022-11-10T07:42:51;2;2;
40569;PMS5003;26270;34.428;-119.710;2022-11-10T07:45:20;3;1;
40569;PMS5003;26270;34.428;-119.710;2022-11-10T07:47:48;1;1;
40569;PMS5003;26270;34.428;-119.710;2022-11-10T07:50:15;1;1;
40569;PMS5003;26270;34.428;-119.710;2022-11-10T07:52:44;0;0;
40569;PMS5003;26270;34.428;-119.710;2022-11-10T07:55:12;1;1;
40569;PMS5003;26270;34.428;-119.710;2022-11-10T07:57:41;1;1;
40569;PMS5003;26270;34.428;-119.710;2022-11-10T08:00:10;1;1;
40569;PMS5003;26270;34.428;-119.710;2022-11-10T08:02:38;0;0;
40569;PMS5003;26270;34.428;-119.710;2022-11-10T08:05:06;2;2;
40569;PMS5003;26270;34.428;-119.710;2022-11-10T08:07:35;2;1;
40569;PMS5003;26270;34.428;-119.710;2022-11-10T08:10:03;0;0;
40569;PMS5003;26270;34.428;-119.710;2022-11-10T08:12:31;2;1;
40569;PMS5003;26270;34.428;-119.710;2022-11-10T08:15:00;0;0;
40569;PMS5003;26270;34.428;-119.710;2022-11-10T08:17:29;1;0;
40569;PMS5003;26270;34.428;-119.710;2022-11-10T08:19:57;0;0;
40569;PMS5003;26270;34.428;-119.710;2022-11-10T08:22:25;0;0;
40569;PMS5003;26270;34.428;-119.710;2022-11-10T08:24:54;0;0;
40569;PMS5003;26270;34.428;-119.710;2022-11-10T08:27:22;1;1;
40569;PMS5003;26270;34.428;-119.710;2022-11-10T08:29:50;0;0;
40569;PMS5003;26270;34.428;-119.710;2022-11-10T08:32:18;0;0;
40569;PMS5003;26270;34.428;-119.710;2022-11-10T08:34:46;0;0;
40569;PMS5003;26270;34.428;-119.710;2022-11-10T08:37:14;0;0;
40569;PMS5003;26270;34.428;-119.710;2022-11-10T08:39:43;0;0;
40569;PMS5003;26270;34.428;-119.710;2022-11-10T08:42:11;0;0;
40569;PMS5003;26270;34.428;-119.710;2022-11-10T08:44:40;0;0;
40569;PMS5003;26270;34.428;-119.710;2022-11-10T08:47:08;0;0;
40569;PMS5003;26270;34.428;-119.710;2022-11-10T08:49:36;0;0;
40569;PMS5003;26270;34.428;-119.710;2022-11-10T08:52:05;0;0;
40569;PMS5003;26270;34.428;-119.710;2022-11-10T08:54:33;0;0;
40569;PMS5003;26270;34.428;-119.710;2022-11-10T08:57:01;0;0;
40569;PMS5003;26270;34.428;-119.710;2022-11-10T08:59:29;0;0;
40569;PMS5003;26270;34.428;-119.710;2022-11-10T09:01:57;0;0;
40569;PMS5003;26270;34.428;-119.710;2022-11-10T09:04:24;0;0;
40569;PMS5003;26270;34.428;-119.710;2022-11-10T09:06:52;1;0;
40569;PMS5003;26270;34.428;-119.710;2022-11-10T09:09:20;0;0;
40569;PMS5003;26270;34.428;-119.710;2022-11-10T09:11:49;0;0;
40569;PMS5003;26270;34.428;-119.710;2022-11-10T09:14:16;2;1;
40569;PMS5003;26270;34.428;-119.710;2022-11-10T09:16:44;1;0;
40569;PMS5003;26270;34.428;-119.710;2022-11-10T09:19:12;0;0;
40569;PMS5003;26270;34.428;-119.710;2022-11-10T09:21:39;1;0;
40569;PMS5003;26270;34.428;-119.710;2022-11-10T09:24:07;1;0;
40569;PMS5003;26270;34.428;-119.710;2022-11-10T09:26:35;1;1;
40569;PMS5003;26270;34.428;-119.710;2022-11-10T09:29:02;1;1;
40569;PMS5003;26270;34.428;-119.710;2022-11-10T09:31:31;0;0;
40569;PMS5003;26270;34.428;-119.710;2022-11-10T09:33:58;1;0;
40569;PMS5003;26270;34.428;-119.710;2022-11-10T09:36:27;0;0;
40569;PMS5003;26270;34.428;-119.710;2022-11-10T09:38:55;0;0;
40569;PMS5003;26270;34.428;-119.710;2022-11-10T09:41:23;1;0;
40569;PMS5003;26270;34.428;-119.710;2022-11-10T09:43:52;0;0;
40569;PMS5003;26270;34.428;-119.710;2022-11-10T09:46:29;0;0;
40569;PMS5003;26270;34.428;-119.710;2022-11-10T09:49:03;0;0;
40569;PMS5003;26270;34.428;-119.710;2022-11-10T09:51:38;0;0;
40569;PMS5003;26270;34.428;-119.710;2022-11-10T09:54:12;1;0;
40569;PMS5003;26270;34.428;-119.710;2022-11-10T09:56:54;0;0;
40569;PMS5003;26270;34.428;-119.710;2022-11-10T09:59:25;1;0;
40569;PMS5003;26270;34.428;-119.710;2022-11-10T10:01:56;0;0;
40569;PMS5003;26270;34.428;-119.710;2022-11-10T10:04:32;1;0;
40569;PMS5003;26270;34.428;-119.710;2022-11-10T10:07:12;0;0;
40569;PMS5003;26270;34.428;-119.710;2022-11-10T10:09:45;0;0;
40569;PMS5003;26270;34.428;-119.710;2022-11-10T10:12:24;1;1;
40569;PMS5003;26270;34.428;-119.710;2022-11-10T10:15:15;0;0;
40569;PMS5003;26270;34.428;-119.710;2022-11-10T10:17:56;1;1;
40569;PMS5003;26270;34.428;-119.710;2022-11-10T10:20:39;1;1;
40569;PMS5003;26270;34.428;-119.710;2022-11-10T10:23:19;1;1;
40569;PMS5003;26270;34.428;-119.710;2022-11-10T10:25:53;1;1;
40569;PMS5003;26270;34.428;-119.710;2022-11-10T10:28:24;1;1;
40569;PMS5003;26270;34.428;-119.710;2022-11-10T10:31:00;0;0;
40569;PMS5003;26270;34.428;-119.710;2022-11-10T10:33:40;0;0;
40569;PMS5003;26270;34.428;-119.710;2022-11-10T10:36:13;0;0;
40569;PMS5003;26270;34.428;-119.710;2022-11-10T10:38:44;1;0;
40569;PMS5003;26270;34.428;-119.710;2022-11-10T10:41:18;0;0;
40569;PMS5003;26270;34.428;-119.710;2022-11-10T10:43:49;0;0;
40569;PMS5003;26270;34.428;-119.710;2022-11-10T10:46:20;1;0;
40569;PMS5003;26270;34.428;-119.710;2022-11-10T10:48:56;0;0;
40569;PMS5003;26270;34.428;-119.710;2022-11-10T10:51:33;0;0;
40569;PMS5003;26270;34.428;-119.710;2022-11-10T10:54:02;0;0;
40569;PMS5003;26270;34.428;-119.710;2022-11-10T10:56:32;0;0;
40569;PMS5003;26270;34.428;-119.710;2022-11-10T10:59:01;0;0;
40569;PMS5003;26270;34.428;-119.710;2022-11-10T11:01:31;0;0;
40569;PMS5003;26270;34.428;-119.710;2022-11-10T11:04:03;1;0;
40569;PMS5003;26270;34.428;-119.710;2022-11-10T11:06:54;0;0;
40569;PMS5003;26270;34.428;-119.710;2022-11-10T11:09:24;0;0;
40569;PMS5003;26270;34.428;-119.710;2022-11-10T11:12:01;0;0;
40569;PMS5003;26270;34.428;-119.710;2022-11-10T11:14:31;0;0;
40569;PMS5003;26270;34.428;-119.710;2022-11-10T11:17:00;0;0;
40569;PMS5003;26270;34.428;-119.710;2022-11-10T11:19:37;0;0;
40569;PMS5003;26270;34.428;-119.710;2022-11-10T11:22:31;0;0;
40569;PMS5003;26270;34.428;-119.710;2022-11-10T11:25:17;0;0;
40569;PMS5003;26270;34.428;-119.710;2022-11-10T11:27:55;0;0;
40569;PMS5003;26270;34.428;-119.710;2022-11-10T11:30:35;0;0;
40569;PMS5003;26270;34.428;-119.710;2022-11-10T11:33:16;0;0;
40569;PMS5003;26270;34.428;-119.710;2022-11-10T11:35:55;0;0;
40569;PMS5003;26270;34.428;-119.710;2022-11-10T11:38:30;0;0;
40569;PMS5003;26270;34.428;-119.710;2022-11-10T11:41:03;0;0;
40569;PMS5003;26270;34.428;-119.710;2022-11-10T11:43:59;0;0;
40569;PMS5003;26270;34.428;-119.710;2022-11-10T11:46:39;0;0;
40569;PMS5003;26270;34.428;-119.710;2022-11-10T11:49:20;0;0;
40569;PMS5003;26270;34.428;-119.710;2022-11-10T11:52:01;0;0;
40569;PMS5003;26270;34.428;-119.710;2022-11-10T11:54:43;0;0;
40569;PMS5003;26270;34.428;-119.710;2022-11-10T11:57:23;0;0;
40569;PMS5003;26270;34.428;-119.710;2022-11-10T12:00:03;0;0;
40569;PMS5003;26270;34.428;-119.710;2022-11-10T12:02:40;0;0;
40569;PMS5003;26270;34.428;-119.710;2022-11-10T12:05:34;0;0;
40569;PMS5003;26270;34.428;-119.710;2022-11-10T12:08:13;0;0;
40569;PMS5003;26270;34.428;-119.710;2022-11-10T12:10:56;0;0;
40569;PMS5003;26270;34.428;-119.710;2022-11-10T12:13:35;0;0;
40569;PMS5003;26270;34.428;-119.710;2022-11-10T12:16:12;0;0;
40569;PMS5003;26270;34.428;-119.710;2022-11-10T12:18:49;0;0;
40569;PMS5003;26270;34.428;-119.710;2022-11-10T12:21:25;0;0;
40569;PMS5003;26270;34.428;-119.710;2022-11-10T12:24:08;0;0;
40569;PMS5003;26270;34.428;-119.710;2022-11-10T12:26:51;0;0;
40569;PMS5003;26270;34.428;-119.710;2022-11-10T12:29:25;0;0;
40569;PMS5003;26270;34.428;-119.710;2022-11-10T12:32:00;0;0;
40569;PMS5003;26270;34.428;-119.710;2022-11-10T12:34:34;0;0;
40569;PMS5003;26270;34.428;-119.710;2022-11-10T12:37:08;0;0;
40569;PMS5003;26270;34.428;-119.710;2022-11-10T12:39:44;0;0;
40569;PMS5003;26270;34.428;-119.710;2022-11-10T12:42:17;1;0;
40569;PMS5003;26270;34.428;-119.710;2022-11-10T12:44:54;0;0;
40569;PMS5003;26270;34.428;-119.710;2022-11-10T12:47:27;0;0;
40569;PMS5003;26270;34.428;-119.710;2022-11-10T12:50:02;0;0;
40569;PMS5003;26270;34.428;-119.710;2022-11-10T12:52:47;0;0;
40569;PMS5003;26270;34.428;-119.710;2022-11-10T12:55:23;0;0;
40569;PMS5003;26270;34.428;-119.710;2022-11-10T12:58:00;0;0;
40569;PMS5003;26270;34.428;-119.710;2022-11-10T13:00:33;0;0;
40569;PMS5003;26270;34.428;-119.710;2022-11-10T13:03:11;0;0;
40569;PMS5003;26270;34.428;-119.710;2022-11-10T13:05:41;0;0;
40569;PMS5003;26270;34.428;-119.710;2022-11-10T13:08:13;0;0;
40569;PMS5003;26270;34.428;-119.710;2022-11-10T13:10:51;0;0;
40569;PMS5003;26270;34.428;-119.710;2022-11-10T13:13:22;0;0;
40569;PMS5003;26270;34.428;-119.710;2022-11-10T13:15:52;0;0;
40569;PMS5003;26270;34.428;-119.710;2022-11-10T13:18:30;0;0;
40569;PMS5003;26270;34.428;-119.710;2022-11-10T13:21:18;0;0;
40569;PMS5003;26270;34.428;-119.710;2022-11-10T13:24:31;0;0;
40569;PMS5003;26270;34.428;-119.710;2022-11-10T13:27:00;0;0;
40569;PMS5003;26270;34.428;-119.710;2022-11-10T13:29:31;4;4;
40569;PMS5003;26270;34.428;-119.710;2022-11-10T13:32:28;15;15;
40569;PMS5003;26270;34.428;-119.710;2022-11-10T13:35:44;21;21;
40569;PMS5003;26270;34.428;-119.710;2022-11-10T13:38:32;21;21;
40569;PMS5003;26270;34.428;-119.710;2022-11-10T13:41:17;28;28;
40569;PMS5003;26270;34.428;-119.710;2022-11-10T13:43:48;46;46;
40569;PMS5003;26270;34.428;-119.710;2022-11-10T13:46:18;74;74;
40569;PMS5003;26270;34.428;-119.710;2022-11-10T13:48:54;98;98;
40569;PMS5003;26270;34.428;-119.710;2022-11-10T13:51:41;85;84;
40569;PMS5003;26270;34.428;-119.710;2022-11-10T13:54:21;73;72;
40569;PMS5003;26270;34.428;-119.710;2022-11-10T13:57:08;57;57;
40569;PMS5003;26270;34.428;-119.710;2022-11-10T13:59:47;99;99;
40569;PMS5003;26270;34.428;-119.710;2022-11-10T14:02:50;23;23;
40569;PMS5003;26270;34.428;-119.710;2022-11-10T14:06:26;6;6;
40569;PMS5003;26270;34.428;-119.710;2022-11-10T14:09:04;1;1;
40569;PMS5003;26270;34.428;-119.710;2022-11-10T14:11:41;1;1;
40569;PMS5003;26270;34.428;-119.710;2022-11-10T14:14:12;0;0;
40569;PMS5003;26270;34.428;-119.710;2022-11-10T14:16:46;0;0;
40569;PMS5003;26270;34.428;-119.710;2022-11-10T14:19:17;0;0;
40569;PMS5003;26270;34.428;-119.710;2022-11-10T14:21:52;0;0;
40569;PMS5003;26270;34.428;-119.710;2022-11-10T14:24:25;0;0;
40569;PMS5003;26270;34.428;-119.710;2022-11-10T14:26:56;0;0;
40569;PMS5003;26270;34.428;-119.710;2022-11-10T14:29:27;0;0;
40569;PMS5003;26270;34.428;-119.710;2022-11-10T14:32:01;0;0;
40569;PMS5003;26270;34.428;-119.710;2022-11-10T14:34:31;0;0;
40569;PMS5003;26270;34.428;-119.710;2022-11-10T14:37:12;0;0;
40569;PMS5003;26270;34.428;-119.710;2022-11-10T14:39:46;0;0;
40569;PMS5003;26270;34.428;-119.710;2022-11-10T14:42:18;1;0;
40569;PMS5003;26270;34.428;-119.710;2022-11-10T14:44:49;0;0;
40569;PMS5003;26270;34.428;-119.710;2022-11-10T14:47:33;1;0;
40569;PMS5003;26270;34.428;-119.710;2022-11-10T14:50:03;0;0;
40569;PMS5003;26270;34.428;-119.710;2022-11-10T14:52:36;0;0;
40569;PMS5003;26270;34.428;-119.710;2022-11-10T14:55:08;0;0;
40569;PMS5003;26270;34.428;-119.710;2022-11-10T14:57:40;0;0;
40569;PMS5003;26270;34.428;-119.710;2022-11-10T15:00:12;0;0;
40569;PMS5003;26270;34.428;-119.710;2022-11-10T15:02:45;0;0;
40569;PMS5003;26270;34.428;-119.710;2022-11-10T15:05:14;0;0;
40569;PMS5003;26270;34.428;-119.710;2022-11-10T15:07:42;3;3;
40569;PMS5003;26270;34.428;-119.710;2022-11-10T15:10:15;31;31;
40569;PMS5003;26270;34.428;-119.710;2022-11-10T15:12:57;108;108;
40569;PMS5003;26270;34.428;-119.710;2022-11-10T15:15:26;26;26;
40569;PMS5003;26270;34.428;-119.710;2022-11-10T15:17:54;25;25;
40569;PMS5003;26270;34.428;-119.710;2022-11-10T15:20:32;19;19;
40569;PMS5003;26270;34.428;-119.710;2022-11-10T15:23:03;16;16;
40569;PMS5003;26270;34.428;-119.710;2022-11-10T15:25:38;4;4;
40569;PMS5003;26270;34.428;-119.710;2022-11-10T15:28:20;0;0;
40569;PMS5003;26270;34.428;-119.710;2022-11-10T15:30:54;0;0;
40569;PMS5003;26270;34.428;-119.710;2022-11-10T15:33:25;0;0;
40569;PMS5003;26270;34.428;-119.710;2022-11-10T15:36:12;1;1;
40569;PMS5003;26270;34.428;-119.710;2022-11-10T15:38:42;0;0;
40569;PMS5003;26270;34.428;-119.710;2022-11-10T15:41:11;0;0;
40569;PMS5003;26270;34.428;-119.710;2022-11-10T15:43:42;0;0;
40569;PMS5003;26270;34.428;-119.710;2022-11-10T15:46:12;0;0;
40569;PMS5003;26270;34.428;-119.710;2022-11-10T15:48:44;1;1;
40569;PMS5003;26270;34.428;-119.710;2022-11-10T15:51:13;1;1;
40569;PMS5003;26270;34.428;-119.710;2022-11-10T15:53:44;1;1;
40569;PMS5003;26270;34.428;-119.710;2022-11-10T15:56:15;1;1;
40569;PMS5003;26270;34.428;-119.710;2022-11-10T15:58:45;0;0;
40569;PMS5003;26270;34.428;-119.710;2022-11-10T16:01:14;1;1;
40569;PMS5003;26270;34.428;-119.710;2022-11-10T16:03:43;1;1;
40569;PMS5003;26270;34.428;-119.710;2022-11-10T16:06:12;2;1;
40569;PMS5003;26270;34.428;-119.710;2022-11-10T16:08:42;1;0;
40569;PMS5003;26270;34.428;-119.710;2022-11-10T16:11:11;1;0;
40569;PMS5003;26270;34.428;-119.710;2022-11-10T16:13:42;0;0;
40569;PMS5003;26270;34.428;-119.710;2022-11-10T16:16:12;0;0;
40569;PMS5003;26270;34.428;-119.710;2022-11-10T16:18:42;1;1;
40569;PMS5003;26270;34.428;-119.710;2022-11-10T16:21:10;0;0;
40569;PMS5003;26270;34.428;-119.710;2022-11-10T16:23:40;1;1;
40569;PMS5003;26270;34.428;-119.710;2022-11-10T16:26:09;0;0;
40569;PMS5003;26270;34.428;-119.710;2022-11-10T16:28:39;0;0;
40569;PMS5003;26270;34.428;-119.710;2022-11-10T16:31:08;1;0;